Time;durP1;ratioP1;P1;durP2;ratioP2;P2;SDS_P1;SDS_P2;PMS_P1;PMS_P2;Temp;Humidity;BMP_temperature;BMP_pressure;BME280_temperature;BME280_humidity;BME280_pressure;Samples;Min_cycle;Max_cycle;Signal;HPM_P1;HPM_P2
2022/12/28 00:00:08;;;;;;;4.70;4.20;;;;;;;1.69;100.00;151801.16;4980232;28;20533;-76
2022/12/28 00:02:57;;;;;;;6.40;4.80;;;;;;;1.73;100.00;151811.41;4990817;28;20445;-76
2022/12/28 00:05:44;;;;;;;7.20;5.13;;;;;;;1.73;100.00;151811.41;4992215;28;20457;-76
2022/12/28 00:08:29;;;;;;;7.00;5.37;;;;;;;1.71;100.00;151807.59;5005859;28;20491;-75
2022/12/28 00:11:16;;;;;;;5.67;4.93;;;;;;;1.73;100.00;151811.41;4981447;28;20425;-76
2022/12/28 00:14:02;;;;;;;5.03;4.53;;;;;;;1.73;100.00;151811.41;4992540;28;20452;-76
2022/12/28 00:16:47;;;;;;;7.90;5.27;;;;;;;1.72;100.00;151810.13;4997191;28;20494;-76
2022/12/28 00:19:32;;;;;;;6.60;4.83;;;;;;;1.74;100.00;151814.00;5004308;28;20453;-76
2022/12/28 00:22:19;;;;;;;4.87;4.17;;;;;;;1.73;100.00;151811.41;4988120;28;20460;-76
2022/12/28 00:25:06;;;;;;;6.50;5.03;;;;;;;1.69;100.00;151801.16;4973518;28;20445;-76
2022/12/28 00:27:51;;;;;;;9.77;5.37;;;;;;;1.70;100.00;151803.69;4991560;28;20465;-77
2022/12/28 00:30:37;;;;;;;5.00;4.50;;;;;;;1.69;100.00;151802.47;4990765;28;20452;-77
2022/12/28 00:33:22;;;;;;;6.70;4.80;;;;;;;1.70;100.00;151803.69;4984760;28;20489;-77
2022/12/28 00:36:11;;;;;;;6.20;4.43;;;;;;;1.73;100.00;151811.41;4973732;28;20485;-77
2022/12/28 00:38:57;;;;;;;5.97;4.50;;;;;;;1.73;100.00;151811.41;4991342;28;20454;-77
2022/12/28 00:41:43;;;;;;;6.97;5.30;;;;;;;1.72;100.00;151808.88;5002096;28;20951;-77
2022/12/28 00:44:28;;;;;;;6.40;5.20;;;;;;;1.72;100.00;151810.13;4974020;28;20600;-77
2022/12/28 00:47:14;;;;;;;6.47;5.60;;;;;;;1.75;100.00;151816.56;5002040;28;20532;-77
2022/12/28 00:49:59;;;;;;;5.73;5.13;;;;;;;1.77;100.00;151821.72;5002000;28;20467;-77
2022/12/28 00:52:45;;;;;;;5.73;4.90;;;;;;;1.82;100.00;151834.56;4992186;28;20441;-77
2022/12/28 00:55:32;;;;;;;7.70;5.40;;;;;;;1.84;100.00;151839.72;4992542;28;20760;-77
2022/12/28 00:58:17;;;;;;;5.30;4.37;;;;;;;1.85;100.00;151843.53;4988575;28;20448;-77
2022/12/28 01:01:03;;;;;;;6.87;5.40;;;;;;;1.88;100.00;151848.72;4979627;28;20443;-77
2022/12/28 01:03:49;;;;;;;6.40;4.57;;;;;;;1.89;100.00;151851.25;4984650;28;20452;-77
2022/12/28 01:06:36;;;;;;;5.53;4.93;;;;;;;1.90;100.00;151855.16;5005284;28;20802;-77
2022/12/28 01:09:23;;;;;;;5.70;4.20;;;;;;;1.90;100.00;151853.84;4995182;28;20533;-77
2022/12/28 01:12:09;;;;;;;6.27;4.67;;;;;;;1.92;100.00;151860.28;4995971;28;20567;-77
2022/12/28 01:14:55;;;;;;;6.30;5.30;;;;;;;1.91;100.00;151856.44;4994795;28;20439;-77
2022/12/28 01:17:40;;;;;;;4.87;4.37;;;;;;;1.92;100.00;151858.97;4990811;28;20495;-77
2022/12/28 01:20:26;;;;;;;5.87;5.00;;;;;;;1.91;100.00;151856.44;5009081;28;20985;-77
2022/12/28 01:23:11;;;;;;;5.77;4.93;;;;;;;1.89;100.00;151852.56;4990184;28;20528;-77
2022/12/28 01:26:01;;;;;;;4.50;3.87;;;;;;;1.88;100.00;151848.72;4986009;28;20462;-77
2022/12/28 01:28:47;;;;;;;6.53;4.87;;;;;;;1.88;100.00;151848.72;4995400;28;20445;-77
2022/12/28 01:31:33;;;;;;;5.57;4.97;;;;;;;1.91;100.00;151857.69;4996364;28;20997;-77
2022/12/28 01:34:19;;;;;;;7.10;4.30;;;;;;;1.92;100.00;151858.97;4994314;28;20492;-77
2022/12/28 01:37:05;;;;;;;6.63;5.43;;;;;;;1.93;100.00;151862.88;5003231;28;20456;-77
2022/12/28 01:39:53;;;;;;;5.37;4.43;;;;;;;1.93;100.00;151861.56;4996086;28;20425;-77
2022/12/28 01:42:38;;;;;;;5.20;4.63;;;;;;;1.89;100.00;151852.56;4995269;28;20480;-77
2022/12/28 01:45:25;;;;;;;7.03;4.80;;;;;;;1.90;100.00;151855.16;4986332;28;20464;-77
2022/12/28 01:48:17;;;;;;;6.50;4.43;;;;;;;1.86;100.00;151844.84;4993738;28;20446;-77
2022/12/28 01:51:03;;;;;;;6.37;4.20;;;;;;;1.89;100.00;151851.25;4995219;28;20603;-77
2022/12/28 01:53:50;;;;;;;4.40;3.77;;;;;;;1.90;100.00;151855.16;4992757;28;20440;-77
2022/12/28 01:56:35;;;;;;;5.83;4.60;;;;;;;1.91;100.00;151857.69;4994481;28;20449;-77
2022/12/28 01:59:22;;;;;;;7.60;5.00;;;;;;;1.91;100.00;151856.44;5005095;28;20761;-77
2022/12/28 02:02:11;;;;;;;6.60;4.70;;;;;;;1.97;100.00;151871.81;4992526;28;20979;-77
2022/12/28 02:04:57;;;;;;;7.80;4.17;;;;;;;1.94;100.00;151865.41;4977451;28;20812;-77
2022/12/28 02:07:46;;;;;;;6.47;4.07;;;;;;;1.99;100.00;151878.25;4994393;28;20939;-77
2022/12/28 02:10:33;;;;;;;4.90;3.70;;;;;;;2.03;100.00;151887.25;5005949;28;20544;-77
2022/12/28 02:13:20;;;;;;;4.10;3.60;;;;;;;2.04;100.00;151891.09;4992924;28;20452;-77
2022/12/28 02:16:07;;;;;;;5.10;3.50;;;;;;;2.08;100.00;151900.13;5003936;28;20995;-77
2022/12/28 02:18:54;;;;;;;8.37;3.93;;;;;;;2.11;100.00;151907.84;4990708;28;20456;-77
2022/12/28 02:21:48;;;;;;;5.67;3.97;;;;;;;2.11;100.00;151909.13;4981895;28;20972;-77
2022/12/28 02:25:05;;;;;;;4.67;4.20;;;;;;;2.14;100.00;151915.56;4992971;28;20468;-77
2022/12/28 02:27:56;;;;;;;4.37;3.33;;;;;;;2.17;100.00;151924.53;4986230;28;20444;-77
2022/12/28 02:30:49;;;;;;;4.80;3.60;;;;;;;2.19;100.00;151929.72;4988349;28;20433;-77
2022/12/28 02:33:39;;;;;;;4.97;4.10;;;;;;;2.21;100.00;151934.84;4987055;28;20461;-77
2022/12/28 02:36:28;;;;;;;6.10;4.50;;;;;;;2.23;100.00;151938.66;4993222;28;20504;-77
2022/12/28 02:39:15;;;;;;;5.50;3.90;;;;;;;2.24;100.00;151941.25;4993327;28;20425;-77
2022/12/28 02:42:01;;;;;;;5.10;3.87;;;;;;;2.24;100.00;151942.56;4994343;28;20503;-77
2022/12/28 02:51:02;;;;;;;4.87;3.40;;;;;;;2.33;100.00;151964.44;4984236;28;20483;-77
2022/12/28 02:54:08;;;;;;;5.77;4.20;;;;;;;2.36;100.00;151973.41;4989023;28;20975;-76
2022/12/28 02:56:55;;;;;;;5.10;3.57;;;;;;;2.37;100.00;151976.00;4985599;28;20781;-77
2022/12/28 02:59:55;;;;;;;3.80;3.23;;;;;;;2.38;100.00;151977.28;4993156;28;20433;-77
2022/12/28 03:02:59;;;;;;;4.80;3.60;;;;;;;2.37;100.00;151974.69;4989743;28;20448;-77
2022/12/28 03:08:56;;;;;;;3.60;3.30;;;;;;;2.44;100.00;151993.97;4994218;28;20569;-76
2022/12/28 03:11:46;;;;;;;4.80;3.60;;;;;;;2.44;100.00;151993.97;4993595;28;20529;-77
2022/12/28 03:14:36;;;;;;;6.47;3.73;;;;;;;2.45;100.00;151996.56;4992674;28;20790;-77
2022/12/28 03:32:57;;;;;;;2.83;2.33;;;;;;;2.57;100.00;152024.88;4993573;28;20754;-76
2022/12/28 03:35:48;;;;;;;3.63;2.80;;;;;;;2.59;100.00;152031.28;4992151;28;20511;-77
2022/12/28 03:38:39;;;;;;;3.17;2.50;;;;;;;2.60;100.00;152032.53;4974163;28;20439;-77
2022/12/28 03:41:30;;;;;;;3.37;2.60;;;;;;;2.62;100.00;152038.97;4986495;28;20577;-77
2022/12/28 03:44:23;;;;;;;3.60;2.40;;;;;;;2.65;100.00;152045.44;4992635;28;20433;-76
2022/12/28 03:47:11;;;;;;;3.10;2.30;;;;;;;2.73;100.00;152065.97;4990255;28;20585;-77
2022/12/28 03:49:58;;;;;;;2.67;2.30;;;;;;;2.73;100.00;152065.97;4990271;28;20448;-77
2022/12/28 03:52:45;;;;;;;2.93;2.37;;;;;;;2.76;100.00;152073.72;5006314;28;20444;-77
2022/12/28 03:55:32;;;;;;;4.57;2.83;;;;;;;2.77;100.00;152076.28;4987593;28;20450;-77
2022/12/28 03:58:17;;;;;;;3.20;2.50;;;;;;;2.80;100.00;152085.31;4987881;28;20449;-77
2022/12/28 04:01:02;;;;;;;2.90;2.10;;;;;;;2.81;100.00;152087.84;4991235;28;20456;-77
2022/12/28 04:03:48;;;;;;;2.23;1.77;;;;;;;2.87;100.00;152102.00;4999879;28;20460;-77
2022/12/28 04:06:33;;;;;;;3.17;2.30;;;;;;;2.85;100.00;152096.88;4987485;28;20810;-77
2022/12/28 04:09:21;;;;;;;2.47;2.10;;;;;;;2.91;100.00;152113.56;4989908;28;20595;-77
2022/12/28 04:12:07;;;;;;;1.83;1.53;;;;;;;2.89;100.00;152107.16;4987618;28;20995;-77
2022/12/28 04:15:15;;;;;;;2.30;1.93;;;;;;;2.89;100.00;152107.16;4992052;28;20526;-77
2022/12/28 04:18:00;;;;;;;3.20;1.87;;;;;;;2.88;100.00;152105.91;4992470;28;20453;-77
2022/12/28 04:20:45;;;;;;;2.23;1.53;;;;;;;2.90;100.00;152111.03;5002515;28;20516;-77
2022/12/28 04:23:31;;;;;;;2.50;1.67;;;;;;;2.88;100.00;152104.59;4989509;28;20457;-77
2022/12/28 04:26:39;;;;;;;2.83;1.43;;;;;;;2.89;100.00;152108.44;4975587;28;20484;-78
2022/12/28 04:29:24;;;;;;;2.10;1.90;;;;;;;2.89;100.00;152107.16;4980302;28;21049;-78
2022/12/28 04:32:22;;;;;;;2.50;1.87;;;;;;;2.93;100.00;152118.75;5002407;28;20460;-78
2022/12/28 04:35:08;;;;;;;2.57;1.70;;;;;;;2.93;100.00;152118.75;4980429;28;20472;-78
2022/12/28 04:38:02;;;;;;;1.90;1.50;;;;;;;2.91;100.00;152112.34;4995458;28;20449;-77
2022/12/28 04:40:47;;;;;;;1.97;1.57;;;;;;;2.90;100.00;152111.03;4988904;28;20564;-79
2022/12/28 04:43:34;;;;;;;2.60;2.40;;;;;;;2.91;100.00;152112.34;4995511;28;20597;-78
2022/12/28 04:46:19;;;;;;;4.13;2.10;;;;;;;2.90;100.00;152109.75;4992322;28;20488;-78
2022/12/28 04:49:05;;;;;;;2.10;1.70;;;;;;;2.93;100.00;152117.47;4984628;28;20492;-77
2022/12/28 04:51:50;;;;;;;3.70;2.23;;;;;;;2.92;100.00;152114.88;4985643;28;20440;-77
2022/12/28 04:54:35;;;;;;;2.33;1.67;;;;;;;2.92;100.00;152114.88;4986848;28;20655;-78
2022/12/28 04:57:21;;;;;;;2.90;2.20;;;;;;;2.97;100.00;152127.75;4991397;28;20441;-77
2022/12/28 05:00:09;;;;;;;3.30;2.00;;;;;;;2.96;100.00;152126.50;4982896;28;20952;-77
2022/12/28 05:02:55;;;;;;;2.67;1.90;;;;;;;2.99;100.00;152132.91;4984860;28;20531;-77
2022/12/28 05:05:40;;;;;;;3.03;1.90;;;;;;;3.00;100.00;152136.75;4990920;28;20456;-78
2022/12/28 05:08:29;;;;;;;2.43;2.00;;;;;;;3.03;100.00;152143.19;4988473;28;20972;-77
2022/12/28 05:11:16;;;;;;;2.30;1.60;;;;;;;3.08;100.00;152156.06;4988198;28;20480;-77
2022/12/28 05:14:02;;;;;;;2.97;2.00;;;;;;;3.14;100.00;152170.22;4984412;28;20453;-77
2022/12/28 05:16:51;;;;;;;2.73;1.90;;;;;;;3.18;100.00;152180.53;4990874;28;20436;-77
2022/12/28 05:19:36;;;;;;;3.40;1.97;;;;;;;3.23;100.00;152193.41;4990775;28;20484;-77
2022/12/28 05:22:22;;;;;;;2.67;1.50;;;;;;;3.28;100.00;152207.56;4982814;28;20529;-77
2022/12/28 05:25:08;;;;;;;2.10;1.43;;;;;;;3.32;100.00;152217.81;4991775;28;20926;-77
2022/12/28 05:27:54;;;;;;;2.47;1.10;;;;;;;3.28;100.00;152207.56;4980402;28;20931;-77
2022/12/28 05:30:40;;;;;;;2.80;1.57;;;;;;;3.28;100.00;152206.25;4989226;28;20452;-77
2022/12/28 05:33:28;;;;;;;2.60;1.50;;;;;;;3.34;100.00;152222.97;4988250;28;20445;-77
2022/12/28 05:36:15;;;;;;;2.77;1.80;;;;;;;3.38;100.00;152233.28;4990887;28;20421;-77
2022/12/28 05:39:01;;;;;;;1.90;1.70;;;;;;;3.41;100.00;152241.00;5003162;28;20472;-77
2022/12/28 05:41:46;;;;;;;2.03;1.60;;;;;;;3.41;100.00;152241.00;4990211;28;20444;-77
2022/12/28 05:44:32;;;;;;;2.37;1.70;;;;;;;3.43;100.00;152244.84;4990893;28;20491;-77
2022/12/28 05:47:17;;;;;;;2.37;1.50;;;;;;;3.44;100.00;152248.69;4972207;28;20564;-77
2022/12/28 05:50:04;;;;;;;1.80;1.40;;;;;;;3.38;100.00;152233.28;4990354;28;21011;-77
2022/12/28 05:52:50;;;;;;;2.97;1.40;;;;;;;3.39;100.00;152234.59;4992506;28;20459;-77
2022/12/28 05:55:35;;;;;;;3.50;1.60;;;;;;;3.40;100.00;152238.41;4994609;28;20444;-77
2022/12/28 05:58:21;;;;;;;4.10;1.50;;;;;;;3.43;100.00;152246.16;4992659;28;20465;-77
2022/12/28 06:01:08;;;;;;;2.67;1.90;;;;;;;3.41;100.00;152241.00;4991967;28;20451;-76
2022/12/28 06:03:55;;;;;;;3.83;1.50;;;;;;;3.41;100.00;152239.72;4988336;28;20449;-78
2022/12/28 06:06:42;;;;;;;2.60;1.80;;;;;;;3.47;100.00;152255.13;4984627;28;20473;-77
2022/12/28 06:09:27;;;;;;;3.03;2.17;;;;;;;3.53;100.00;152271.88;4983227;28;20468;-77
2022/12/28 06:12:12;;;;;;;1.93;1.60;;;;;;;3.55;100.00;152275.72;4986692;28;20918;-77
2022/12/28 06:14:58;;;;;;;3.30;1.80;;;;;;;3.58;100.00;152283.47;4981371;28;20539;-77
2022/12/28 06:17:43;;;;;;;2.00;1.50;;;;;;;3.61;100.00;152292.47;4982809;28;20507;-77
2022/12/28 06:20:28;;;;;;;2.43;1.30;;;;;;;3.61;100.00;152292.47;4983609;28;20449;-77
2022/12/28 06:23:15;;;;;;;1.67;1.57;;;;;;;3.65;100.00;152301.50;4984357;28;20500;-77
2022/12/28 06:26:01;;;;;;;1.80;1.40;;;;;;;3.66;100.00;152304.06;4983608;28;20525;-77
2022/12/28 06:28:47;;;;;;;2.17;1.60;;;;;;;3.66;100.00;152305.34;4983629;28;20674;-76
2022/12/28 06:31:34;;;;;;;1.97;1.33;;;;;;;3.67;100.00;152307.94;4985400;28;21435;-77
2022/12/28 06:34:19;;;;;;;3.63;1.80;;;;;;;3.66;100.00;152304.06;4986614;28;20488;-77
2022/12/28 06:37:04;;;;;;;2.43;1.50;;;;;;;3.75;100.00;152327.25;4982927;28;20517;-76
2022/12/28 06:39:51;;;;;;;4.53;1.53;;;;;;;3.72;100.00;152318.22;4984633;28;20578;-77
2022/12/28 06:42:37;;;;;;;2.00;1.43;;;;;;;3.71;100.00;152315.69;4984064;28;20452;-76
2022/12/28 06:45:22;;;;;;;4.90;1.40;;;;;;;3.66;100.00;152305.34;4982292;28;20529;-77
2022/12/28 06:48:08;;;;;;;2.50;1.83;;;;;;;3.66;100.00;152304.06;4990330;28;20808;-77
2022/12/28 06:50:57;;;;;;;1.83;1.40;;;;;;;3.68;100.00;152309.19;4985374;28;20903;-77
2022/12/28 06:53:42;;;;;;;3.37;1.93;;;;;;;3.72;100.00;152318.22;4996194;28;20593;-77
2022/12/28 06:56:31;;;;;;;4.90;1.73;;;;;;;3.72;100.00;152318.22;4982936;28;20429;-76
2022/12/28 06:59:16;;;;;;;2.00;1.60;;;;;;;3.69;100.00;152313.09;4981765;28;20600;-77
2022/12/28 07:02:02;;;;;;;2.50;1.43;;;;;;;3.73;100.00;152322.13;4986544;28;20437;-76
2022/12/28 07:04:47;;;;;;;2.60;1.60;;;;;;;3.80;100.00;152338.81;4981592;28;20887;-76
2022/12/28 07:07:33;;;;;;;2.60;1.57;;;;;;;3.81;100.00;152341.41;4981929;28;20617;-76
2022/12/28 07:10:18;;;;;;;2.30;1.67;;;;;;;3.84;100.00;152350.41;4981812;28;20437;-77
2022/12/28 07:13:05;;;;;;;3.80;1.60;;;;;;;3.77;100.00;152331.09;4981453;28;20462;-77
2022/12/28 07:15:50;;;;;;;3.10;1.60;;;;;;;3.75;100.00;152327.25;4983504;28;20792;-76
2022/12/28 07:18:36;;;;;;;2.23;1.53;;;;;;;3.78;100.00;152333.69;4981635;28;20460;-76
2022/12/28 07:21:23;;;;;;;2.60;1.47;;;;;;;3.80;100.00;152338.81;4983355;28;20779;-77
2022/12/28 07:24:09;;;;;;;2.27;1.70;;;;;;;3.79;100.00;152336.22;4982855;28;20450;-77
2022/12/28 07:26:54;;;;;;;2.50;1.73;;;;;;;3.78;100.00;152333.69;4981805;28;21134;-76
2022/12/28 07:29:41;;;;;;;2.70;1.60;;;;;;;3.76;100.00;152328.53;4981636;28;20581;-77
2022/12/28 07:32:26;;;;;;;3.30;2.03;;;;;;;3.74;100.00;152323.34;4981647;28;20445;-77
2022/12/28 07:35:12;;;;;;;3.37;2.20;;;;;;;3.71;100.00;152315.69;4981567;28;20480;-76
2022/12/28 07:37:57;;;;;;;3.10;2.27;;;;;;;3.69;100.00;152313.09;4982468;28;20464;-77
2022/12/28 07:40:42;;;;;;;4.53;2.57;;;;;;;3.69;100.00;152313.09;4980814;28;20976;-76
2022/12/28 07:43:28;;;;;;;3.90;2.77;;;;;;;3.77;100.00;152331.09;4981845;28;20655;-77
2022/12/28 07:46:17;;;;;;;2.77;2.43;;;;;;;3.76;100.00;152329.78;4981621;28;20460;-77
2022/12/28 07:49:02;;;;;;;2.67;2.33;;;;;;;3.79;100.00;152336.22;4983715;28;20446;-76
2022/12/28 07:51:48;;;;;;;3.83;2.30;;;;;;;3.77;100.00;152332.38;4982865;28;20944;-77
2022/12/28 07:54:33;;;;;;;2.80;2.40;;;;;;;3.80;100.00;152338.81;4981952;28;20437;-76
2022/12/28 07:57:18;;;;;;;3.00;2.63;;;;;;;3.76;100.00;152328.53;4981189;28;20823;-76
2022/12/28 08:00:06;;;;;;;3.77;2.80;;;;;;;3.73;100.00;152320.81;4993866;28;20505;-76
2022/12/28 08:02:58;;;;;;;3.70;3.00;;;;;;;3.73;100.00;152322.13;4984325;28;20452;-76
2022/12/28 08:05:44;;;;;;;4.27;3.03;;;;;;;3.72;100.00;152319.50;4982664;28;20448;-77
2022/12/28 08:08:30;;;;;;;3.23;2.63;;;;;;;3.69;100.00;152313.09;4983627;28;20793;-76
2022/12/28 08:11:17;;;;;;;5.77;2.87;;;;;;;3.77;100.00;152331.09;4982095;28;20812;-77
2022/12/28 08:14:02;;;;;;;3.53;3.23;;;;;;;3.78;100.00;152333.69;4983944;28;20456;-77
2022/12/28 08:16:47;;;;;;;4.37;3.30;;;;;;;3.80;100.00;152338.81;4983061;28;20438;-77
2022/12/28 08:19:34;;;;;;;3.57;2.93;;;;;;;3.86;100.00;152354.28;4984552;28;20468;-77
2022/12/28 08:22:19;;;;;;;3.23;2.60;;;;;;;3.89;100.00;152363.25;4981923;28;20622;-76
2022/12/28 08:25:06;;;;;;;4.33;3.03;;;;;;;3.92;100.00;152369.75;4984745;28;20457;-76
2022/12/28 08:27:51;;;;;;;4.70;3.50;;;;;;;3.91;100.00;152368.47;4987274;28;20478;-77
2022/12/28 08:30:36;;;;;;;3.93;2.63;;;;;;;3.93;100.00;152372.28;4982409;28;20456;-77
2022/12/28 08:33:22;;;;;;;4.63;3.17;;;;;;;3.96;100.00;152380.03;4984717;28;20472;-77
2022/12/28 08:36:09;;;;;;;4.03;3.00;;;;;;;3.95;100.00;152377.44;4980078;28;21042;-76
2022/12/28 08:38:56;;;;;;;3.40;3.10;;;;;;;3.99;100.00;152387.75;4984483;28;20456;-77
2022/12/28 08:41:41;;;;;;;4.10;3.50;;;;;;;4.00;100.00;152390.31;4980911;28;20461;-77
2022/12/28 08:44:26;;;;;;;3.53;3.13;;;;;;;4.05;100.00;152403.22;4981612;28;20982;-77
2022/12/28 08:47:12;;;;;;;2.70;2.33;;;;;;;4.10;100.00;152416.09;4981512;28;20994;-77
2022/12/28 08:49:57;;;;;;;4.33;2.80;;;;;;;4.14;100.00;152426.38;4981790;28;20562;-77
2022/12/28 08:52:44;;;;;;;3.33;2.90;;;;;;;4.28;100.00;152462.47;4981635;28;20456;-76
2022/12/28 08:55:29;;;;;;;3.57;3.27;;;;;;;4.31;100.00;152470.19;4992985;28;20449;-77
2022/12/28 08:58:15;;;;;;;3.70;3.07;;;;;;;4.47;100.00;152511.41;4989051;28;20464;-77
2022/12/28 09:01:06;;;;;;;3.47;2.80;;;;;;;4.51;100.00;152521.69;4982742;28;20449;-77
2022/12/28 09:03:53;;;;;;;4.20;3.53;;;;;;;4.57;100.00;152535.88;4979424;28;20855;-77
2022/12/28 09:06:39;;;;;;;4.00;2.97;;;;;;;4.57;100.00;152535.88;4979945;28;21012;-77
2022/12/28 09:09:25;;;;;;;4.30;3.57;;;;;;;4.72;100.00;152575.81;4980802;28;20433;-77
2022/12/28 09:12:11;;;;;;;4.73;3.20;;;;;;;4.75;100.00;152582.25;4981310;28;20461;-77
2022/12/28 09:14:56;;;;;;;3.20;2.90;;;;;;;4.80;100.00;152596.44;4980704;28;20447;-77
2022/12/28 09:17:41;;;;;;;3.73;2.90;;;;;;;4.91;100.00;152624.78;4979496;28;20543;-77
2022/12/28 09:20:27;;;;;;;3.70;3.13;;;;;;;5.07;100.00;152663.44;4980888;28;20457;-77
2022/12/28 09:23:13;;;;;;;4.00;3.00;;;;;;;5.12;100.00;152677.63;4980897;28;20976;-77
2022/12/28 09:26:05;;;;;;;3.27;2.83;;;;;;;5.15;100.00;152685.38;4979396;28;21006;-77
2022/12/28 09:28:52;;;;;;;3.37;2.80;;;;;;;5.33;100.00;152730.47;4985132;28;20481;-77
2022/12/28 09:31:39;;;;;;;3.60;2.97;;;;;;;5.45;100.00;152761.44;4981361;28;20513;-77
2022/12/28 09:34:24;;;;;;;3.20;2.90;;;;;;;5.51;100.00;152776.88;4981404;28;20481;-77
2022/12/28 09:37:10;;;;;;;3.23;2.93;;;;;;;5.60;100.00;152798.81;4984474;28;20464;-77
2022/12/28 09:39:55;;;;;;;5.70;2.93;;;;;;;5.74;100.00;152834.94;4988064;28;21333;-77
2022/12/28 09:42:43;;;;;;;4.20;2.80;;;;;;;5.70;100.00;152825.88;4986045;28;20674;-77
2022/12/28 09:45:28;;;;;;;4.83;4.17;;;;;;;5.90;99.82;152877.56;4987238;28;20444;-77
2022/12/28 09:48:16;;;;;;;11.00;4.90;;;;;;;5.99;99.22;152900.75;4982742;28;20484;-77
2022/12/28 09:51:01;;;;;;;5.10;4.50;;;;;;;5.98;99.29;152896.91;4984514;28;20448;-77
2022/12/28 09:53:47;;;;;;;5.77;4.03;;;;;;;5.97;98.92;152895.59;4985513;28;20591;-77
2022/12/28 09:56:35;;;;;;;4.33;3.87;;;;;;;6.02;98.50;152908.50;4983145;28;20456;-77
2022/12/28 09:59:24;;;;;;;4.50;3.80;;;;;;;5.95;99.04;152889.16;4985378;28;20454;-77
2022/12/28 10:02:16;;;;;;;5.90;4.53;;;;;;;5.88;98.98;152871.06;4985153;28;20796;-77
2022/12/28 10:05:02;;;;;;;6.80;4.20;;;;;;;5.93;99.44;152885.25;4981777;28;20507;-77
2022/12/28 10:07:47;;;;;;;4.60;4.03;;;;;;;5.97;98.89;152894.28;4984479;28;20997;-77
2022/12/28 10:10:33;;;;;;;5.10;4.13;;;;;;;5.99;99.52;152899.44;4983250;28;20453;-77
2022/12/28 10:13:21;;;;;;;4.40;3.77;;;;;;;6.06;98.84;152918.78;4982081;28;20465;-77
2022/12/28 10:16:14;;;;;;;4.10;3.70;;;;;;;6.17;99.90;152945.88;4982138;28;20444;-77
2022/12/28 10:18:59;;;;;;;4.73;3.77;;;;;;;6.19;99.98;152951.06;4982622;28;20445;-77
2022/12/28 10:21:46;;;;;;;4.50;3.23;;;;;;;6.25;100.00;152965.28;4983026;28;20445;-77
2022/12/28 10:24:31;;;;;;;6.40;3.93;;;;;;;6.43;98.84;153011.72;4982792;28;20447;-77
2022/12/28 10:27:20;;;;;;;4.27;3.07;;;;;;;6.44;97.50;153015.56;4982642;28;20478;-77
2022/12/28 10:30:10;;;;;;;5.10;3.57;;;;;;;6.50;98.46;153029.75;4982716;28;20457;-77
2022/12/28 10:32:58;;;;;;;3.73;3.00;;;;;;;6.65;98.02;153068.47;4982728;28;20526;-77
2022/12/28 10:35:49;;;;;;;3.50;2.87;;;;;;;6.72;97.82;153086.56;4986439;28;20529;-77
2022/12/28 10:38:35;;;;;;;3.93;3.00;;;;;;;6.78;98.37;153100.78;4986224;28;20456;-77
2022/12/28 10:41:20;;;;;;;3.37;2.93;;;;;;;6.82;98.64;153112.38;4983677;28;20460;-77
2022/12/28 10:44:18;;;;;;;3.23;2.70;;;;;;;6.99;97.24;153156.25;4984506;28;20452;-77
2022/12/28 10:47:06;;;;;;;3.60;2.33;;;;;;;7.13;97.38;153192.41;4980717;28;20469;-77
2022/12/28 10:49:53;;;;;;;2.50;2.10;;;;;;;7.27;97.38;153227.28;4988647;28;20581;-77
2022/12/28 10:52:38;;;;;;;3.00;2.70;;;;;;;7.36;97.77;153251.78;4983800;28;20543;-78
2022/12/28 10:55:28;;;;;;;3.40;2.27;;;;;;;7.49;96.44;153282.81;4979890;28;20505;-77
2022/12/28 10:58:20;;;;;;;2.80;2.17;;;;;;;7.62;94.78;153316.41;4984994;28;20818;-77
2022/12/28 11:01:16;;;;;;;2.70;1.40;;;;;;;7.55;93.29;153298.28;4980530;28;20445;-77
2022/12/28 11:04:05;;;;;;;2.13;1.53;;;;;;;7.54;94.26;153295.72;4981706;28;20792;-77
2022/12/28 11:06:55;;;;;;;1.70;1.30;;;;;;;7.57;93.70;153303.47;4981835;28;20527;-77
2022/12/28 11:09:40;;;;;;;2.27;1.23;;;;;;;7.60;94.10;153311.25;4981560;28;20465;-77
2022/12/28 11:12:27;;;;;;;1.73;1.13;;;;;;;7.61;94.00;153313.78;4981945;28;20453;-77
2022/12/28 11:15:15;;;;;;;2.30;1.67;;;;;;;7.60;93.91;153312.50;4994899;28;20490;-78
2022/12/28 11:18:01;;;;;;;3.00;1.20;;;;;;;7.51;93.92;153289.28;4995102;28;20457;-78
2022/12/28 11:20:48;;;;;;;3.90;1.43;;;;;;;7.48;94.79;153280.22;4994261;28;20492;-77
2022/12/28 11:23:35;;;;;;;1.67;1.07;;;;;;;7.48;92.75;153280.22;4983628;28;20964;-77
2022/12/28 11:26:21;;;;;;;3.70;1.80;;;;;;;7.57;91.70;153303.47;4981848;28;21203;-77
2022/12/28 11:29:06;;;;;;;6.13;2.73;;;;;;;7.46;93.15;153276.34;4982618;28;20469;-77
2022/12/28 11:31:56;;;;;;;6.87;3.93;;;;;;;7.48;91.34;153281.50;4981849;28;21005;-77
2022/12/28 11:34:41;;;;;;;3.63;2.80;;;;;;;7.44;92.46;153269.91;4981373;28;20481;-77
2022/12/28 11:37:26;;;;;;;2.03;1.63;;;;;;;7.47;93.12;153277.63;4987417;28;20489;-77
2022/12/28 11:40:49;;;;;;;1.60;1.30;;;;;;;7.51;91.47;153289.28;4981647;28;20445;-77
2022/12/28 11:43:50;;;;;;;2.20;1.30;;;;;;;7.53;91.44;153293.13;4984008;28;20453;-77
2022/12/28 11:46:40;;;;;;;1.73;1.10;;;;;;;7.63;91.59;153318.94;4981170;28;20446;-77
2022/12/28 11:49:28;;;;;;;2.47;1.50;;;;;;;7.75;91.39;153349.97;4982983;28;20554;-77
2022/12/28 11:52:47;;;;;;;2.10;1.23;;;;;;;7.84;89.73;153374.50;4982592;28;21046;-77
2022/12/28 11:55:58;;;;;;;3.07;1.40;;;;;;;7.75;90.19;153349.97;4986099;28;20491;-77
2022/12/28 11:59:03;;;;;;;2.80;1.33;;;;;;;7.85;89.84;153377.09;4985220;28;20444;-77
2022/12/28 12:01:53;;;;;;;3.83;2.57;;;;;;;7.80;90.21;153362.88;4979119;28;20455;-77
2022/12/28 12:04:41;;;;;;;4.20;2.50;;;;;;;7.81;91.04;153366.75;4979830;28;20440;-77
2022/12/28 12:07:46;;;;;;;5.00;3.00;;;;;;;7.70;91.62;153337.06;4980856;28;20629;-77
2022/12/28 12:10:33;;;;;;;3.10;2.50;;;;;;;7.67;91.85;153329.31;4979972;28;20610;-78
2022/12/28 12:13:44;;;;;;;3.00;1.90;;;;;;;7.80;89.84;153362.88;4995784;28;20441;-77
2022/12/28 12:16:35;;;;;;;3.50;2.43;;;;;;;7.87;89.75;153380.97;4980637;28;20449;-78
2022/12/28 12:19:23;;;;;;;2.10;1.53;;;;;;;7.95;90.04;153401.63;4980683;28;20592;-77
2022/12/28 12:22:12;;;;;;;2.10;1.80;;;;;;;7.92;89.35;153393.88;4983502;28;20442;-77
2022/12/28 12:25:02;;;;;;;4.13;2.47;;;;;;;7.82;90.37;153368.03;4980717;28;20577;-75
2022/12/28 12:27:50;;;;;;;3.93;2.50;;;;;;;7.81;89.40;153366.75;4983437;28;20544;-75
2022/12/28 12:30:38;;;;;;;2.60;2.07;;;;;;;7.74;91.25;153347.38;4982097;28;21441;-75
2022/12/28 12:33:26;;;;;;;3.07;2.50;;;;;;;7.77;90.70;153356.44;4980674;28;20577;-75
2022/12/28 12:36:26;;;;;;;4.33;2.10;;;;;;;7.84;91.48;153374.50;4984120;28;20460;-75
2022/12/28 12:39:24;;;;;;;3.50;1.93;;;;;;;7.97;91.04;153406.78;4987508;28;20448;-76
2022/12/28 12:42:15;;;;;;;3.20;2.00;;;;;;;8.05;89.95;153427.47;4983971;28;20945;-76
2022/12/28 12:45:04;;;;;;;2.23;1.73;;;;;;;8.17;90.96;153458.50;4982875;28;20457;-78
2022/12/28 12:48:10;;;;;;;4.67;2.40;;;;;;;8.10;91.11;153440.38;4984722;28;20552;-78
2022/12/28 12:51:04;;;;;;;2.43;1.37;;;;;;;8.16;89.10;153455.91;4981713;28;20536;-78
2022/12/28 12:53:58;;;;;;;2.73;1.43;;;;;;;8.21;87.98;153468.81;4981073;28;20943;-78
2022/12/28 12:56:47;;;;;;;4.33;1.60;;;;;;;8.19;88.63;153462.38;4982027;28;20454;-78
2022/12/28 12:59:52;;;;;;;2.13;1.57;;;;;;;8.18;88.75;153459.81;4981323;28;21030;-78
2022/12/28 13:03:09;;;;;;;3.20;1.70;;;;;;;8.08;88.41;153433.94;4981246;28;20451;-78
2022/12/28 13:05:56;;;;;;;4.27;2.10;;;;;;;8.00;90.36;153414.53;4980700;28;20453;-77
2022/12/28 13:08:47;;;;;;;2.13;1.60;;;;;;;7.93;91.91;153396.47;4983217;28;20481;-78
2022/12/28 13:11:36;;;;;;;3.97;1.80;;;;;;;7.92;91.28;153395.19;4987563;28;20497;-75
2022/12/28 13:14:24;;;;;;;6.27;4.93;;;;;;;7.85;91.23;153375.81;4992896;28;20473;-78
2022/12/28 13:17:14;;;;;;;3.60;2.10;;;;;;;7.79;91.99;153361.59;4982598;28;20522;-78
2022/12/28 13:20:18;;;;;;;1.93;1.57;;;;;;;7.80;91.93;153364.19;4980333;28;20477;-78
2022/12/28 13:23:03;;;;;;;2.20;1.70;;;;;;;7.80;92.22;153364.19;4980349;28;20957;-77
2022/12/28 13:25:51;;;;;;;2.40;1.30;;;;;;;7.80;93.25;153362.88;4979111;28;20456;-78
2022/12/28 13:28:37;;;;;;;1.43;1.30;;;;;;;7.81;90.56;153365.50;4981308;28;20461;-77